Time;durP1;ratioP1;P1;durP2;ratioP2;P2;SDS_P1;SDS_P2;PMS_P1;PMS_P2;Temp;Humidity;BMP_temperature;BMP_pressure;BME280_temperature;BME280_humidity;BME280_pressure;Samples;Min_cycle;Max_cycle;Signal;HPM_P1;HPM_P2
2021/11/05 00:00:12;;;;;;;51.15;31.40;;;;;;;12.12;100.00;100936.64;1824248;77;21998;-75
2021/11/05 00:03:18;;;;;;;53.33;33.45;;;;;;;12.12;100.00;100933.38;1830596;78;21233;-75
2021/11/05 00:06:24;;;;;;;50.52;30.72;;;;;;;12.13;100.00;100935.09;1823550;77;21294;-75
2021/11/05 00:09:31;;;;;;;55.33;31.73;;;;;;;12.14;100.00;100935.94;1824160;77;21260;-75
2021/11/05 00:12:37;;;;;;;55.80;33.98;;;;;;;12.14;100.00;100935.94;1822479;77;21177;-75
2021/11/05 00:15:43;;;;;;;52.35;32.98;;;;;;;12.13;100.00;100928.75;1819916;77;21178;-75
2021/11/05 00:19:06;;;;;;;57.33;31.97;;;;;;;12.12;100.00;100930.64;1826198;77;21213;-75
2021/11/05 00:22:11;;;;;;;46.37;29.65;;;;;;;12.13;100.00;100926.01;1822862;77;21297;-75
2021/11/05 00:25:16;;;;;;;48.75;31.37;;;;;;;12.13;100.00;100930.12;1823010;78;21268;-75
2021/11/05 00:28:21;;;;;;;46.88;30.32;;;;;;;12.12;100.00;100925.16;1823853;77;21190;-75
2021/11/05 00:31:27;;;;;;;48.10;28.80;;;;;;;12.12;100.00;100937.49;1820911;77;21320;-75
2021/11/05 00:34:33;;;;;;;48.80;31.45;;;;;;;12.13;100.00;100935.09;1824244;77;21209;-75
2021/11/05 00:37:38;;;;;;;50.83;32.60;;;;;;;12.14;100.00;100929.08;1821560;77;21300;-75
2021/11/05 00:40:43;;;;;;;50.92;30.68;;;;;;;12.14;100.00;100922.23;1824675;77;21330;-75
2021/11/05 00:43:50;;;;;;;44.00;29.30;;;;;;;12.14;100.00;100917.63;1824657;78;21295;-75
2021/11/05 00:46:57;;;;;;;52.38;31.40;;;;;;;12.16;100.00;100920.19;1822027;77;21256;-75
2021/11/05 00:50:02;;;;;;;50.20;32.95;;;;;;;12.15;100.00;100923.97;1824345;78;21852;-75
2021/11/05 00:53:08;;;;;;;46.60;30.17;;;;;;;12.14;100.00;100919.48;1822353;77;21298;-75
2021/11/05 00:56:13;;;;;;;54.88;31.97;;;;;;;12.15;100.00;100928.08;1820676;77;21305;-75
2021/11/05 00:59:18;;;;;;;49.15;31.70;;;;;;;12.15;100.00;100915.73;1823266;77;21204;-75
2021/11/05 01:02:24;;;;;;;54.15;31.73;;;;;;;12.15;100.00;100913.00;1825418;77;21873;-75
2021/11/05 01:05:30;;;;;;;47.95;29.85;;;;;;;12.15;100.00;100931.67;1825156;77;21299;-75
2021/11/05 01:08:36;;;;;;;47.05;29.48;;;;;;;12.17;100.00;100928.23;1822662;77;21278;-75
2021/11/05 01:11:42;;;;;;;46.33;29.77;;;;;;;12.18;100.00;100931.83;1824243;77;21312;-74
2021/11/05 01:14:48;;;;;;;50.65;31.68;;;;;;;12.18;100.00;100926.34;1826741;77;21800;-75
2021/11/05 01:17:54;;;;;;;54.83;31.75;;;;;;;12.17;100.00;100928.23;1831114;78;21683;-75
2021/11/05 01:21:00;;;;;;;45.60;28.98;;;;;;;12.17;100.00;100921.89;1824467;78;21170;-74
2021/11/05 01:24:05;;;;;;;46.83;29.18;;;;;;;12.17;100.00;100920.52;1821920;77;21822;-75
2021/11/05 01:27:10;;;;;;;49.75;30.60;;;;;;;12.17;100.00;100915.89;1827164;77;21162;-75
2021/11/05 01:30:17;;;;;;;47.38;31.00;;;;;;;12.18;100.00;100901.66;1820562;78;21176;-75
2021/11/05 01:33:24;;;;;;;46.80;31.17;;;;;;;12.18;100.00;100901.66;1820247;77;21306;-74
2021/11/05 01:36:29;;;;;;;54.35;31.20;;;;;;;12.17;100.00;100917.78;1825965;78;21813;-75
2021/11/05 01:39:35;;;;;;;49.25;29.30;;;;;;;12.17;100.00;100910.92;1824205;77;21295;-75
2021/11/05 01:42:43;;;;;;;43.15;29.48;;;;;;;12.18;100.00;100923.61;1824203;77;21316;-75
2021/11/05 01:45:50;;;;;;;48.95;31.00;;;;;;;12.17;100.00;100916.41;1824972;77;21886;-74
2021/11/05 01:48:56;;;;;;;47.58;27.80;;;;;;;12.18;100.00;100916.75;1835774;77;21339;-74
2021/11/05 01:52:02;;;;;;;42.00;27.45;;;;;;;12.21;100.00;100920.53;1820734;77;21886;-75
2021/11/05 01:55:07;;;;;;;40.73;27.93;;;;;;;12.23;100.00;100926.69;1823780;78;21304;-75
2021/11/05 01:58:13;;;;;;;43.08;29.02;;;;;;;12.24;100.00;100928.42;1823142;77;21338;-75
2021/11/05 02:01:19;;;;;;;48.65;29.95;;;;;;;12.25;100.00;100915.05;1824739;77;21254;-75
2021/11/05 02:04:24;;;;;;;45.60;30.20;;;;;;;12.27;100.00;100917.94;1823165;77;21287;-75
2021/11/05 02:07:32;;;;;;;54.35;31.02;;;;;;;12.29;100.00;100916.42;1828280;77;21233;-75
2021/11/05 02:10:38;;;;;;;55.75;34.18;;;;;;;12.30;100.00;100924.98;1823999;77;21244;-75
2021/11/05 02:13:44;;;;;;;52.75;31.93;;;;;;;12.31;100.00;100918.98;1818794;77;21837;-75
2021/11/05 02:16:51;;;;;;;55.45;31.82;;;;;;;12.32;100.00;100919.31;1828144;77;21181;-75
2021/11/05 02:19:57;;;;;;;51.65;32.67;;;;;;;12.32;100.00;100913.31;1826427;77;21315;-75
2021/11/05 02:23:04;;;;;;;49.60;31.17;;;;;;;12.32;100.00;100917.42;1825128;77;21296;-75
2021/11/05 02:26:10;;;;;;;59.10;35.25;;;;;;;12.32;100.00;100916.05;1821877;77;21367;-75
2021/11/05 02:29:15;;;;;;;54.18;32.88;;;;;;;12.33;100.00;100915.53;1824883;78;21161;-75
2021/11/05 02:32:21;;;;;;;53.58;32.05;;;;;;;12.33;100.00;100910.05;1822206;77;21955;-75
2021/11/05 02:35:25;;;;;;;51.23;32.00;;;;;;;12.34;100.00;100910.41;1821168;78;21284;-75
2021/11/05 02:38:31;;;;;;;55.20;32.55;;;;;;;12.34;100.00;100901.66;1822993;77;21306;-75
2021/11/05 02:41:38;;;;;;;54.15;32.65;;;;;;;12.35;100.00;100910.23;1824308;77;21884;-75
2021/11/05 02:44:44;;;;;;;45.05;30.45;;;;;;;12.37;100.00;100915.53;1821662;77;21307;-75
2021/11/05 02:47:49;;;;;;;51.88;30.17;;;;;;;12.38;100.00;100922.23;1826145;77;21189;-75
2021/11/05 02:50:55;;;;;;;48.58;31.60;;;;;;;12.39;100.00;100918.45;1822022;77;21850;-75
2021/11/05 02:54:00;;;;;;;51.50;31.97;;;;;;;12.39;100.00;100929.43;1823060;78;21317;-75
2021/11/05 02:57:07;;;;;;;41.40;28.07;;;;;;;12.39;100.00;100921.20;1823795;77;21307;-75
2021/11/05 03:00:14;;;;;;;47.93;30.17;;;;;;;12.40;100.00;100927.02;1824582;77;21279;-75
2021/11/05 03:03:20;;;;;;;50.15;30.92;;;;;;;12.40;100.00;100928.39;1821761;77;21981;-75
2021/11/05 03:06:26;;;;;;;48.92;30.60;;;;;;;12.39;100.00;100926.69;1822002;77;21323;-75
2021/11/05 03:09:33;;;;;;;50.40;30.97;;;;;;;12.40;100.00;100928.39;1826773;77;21335;-75
2021/11/05 03:12:39;;;;;;;46.25;29.23;;;;;;;12.38;100.00;100918.64;1788482;77;21298;-75
2021/11/05 03:15:45;;;;;;;51.33;30.00;;;;;;;12.37;100.00;100909.53;1825157;77;21311;-75
2021/11/05 03:18:50;;;;;;;43.65;29.52;;;;;;;12.34;100.00;100907.16;1819090;77;21198;-75
2021/11/05 03:21:56;;;;;;;47.58;29.00;;;;;;;12.32;100.00;100913.83;1822866;78;21284;-75
2021/11/05 03:25:01;;;;;;;44.30;28.40;;;;;;;12.27;100.00;100911.59;1820932;77;21739;-75
2021/11/05 03:28:08;;;;;;;49.05;30.35;;;;;;;12.24;100.00;100910.59;1825893;77;21332;-75
2021/11/05 03:31:14;;;;;;;45.85;27.22;;;;;;;12.20;100.00;100901.84;1823971;77;21752;-75
2021/11/05 03:34:20;;;;;;;43.50;27.22;;;;;;;12.15;100.00;100898.77;1824966;77;21231;-75
2021/11/05 03:37:26;;;;;;;42.60;28.00;;;;;;;12.12;100.00;100897.73;1826966;77;21894;-75
2021/11/05 03:40:33;;;;;;;48.08;28.30;;;;;;;12.10;100.00;100896.20;1826416;78;21702;-75
2021/11/05 03:43:38;;;;;;;42.25;26.33;;;;;;;12.08;100.00;100895.50;1823294;77;21752;-75
2021/11/05 03:46:44;;;;;;;43.30;27.62;;;;;;;12.07;100.00;100897.91;1820941;77;21188;-75
2021/11/05 03:49:50;;;;;;;48.10;28.65;;;;;;;12.07;100.00;100893.80;1821407;77;21360;-75
2021/11/05 03:52:57;;;;;;;48.80;28.27;;;;;;;12.04;100.00;100901.84;1827012;77;21295;-75
2021/11/05 03:56:02;;;;;;;45.00;28.62;;;;;;;12.04;100.00;100896.36;1826196;77;21351;-75
2021/11/05 03:59:08;;;;;;;44.55;28.85;;;;;;;12.02;100.00;100892.42;1825358;78;21296;-75
2021/11/05 04:02:13;;;;;;;44.73;27.52;;;;;;;12.02;100.00;100897.05;1824556;78;21344;-75
2021/11/05 04:05:18;;;;;;;42.95;27.32;;;;;;;12.02;100.00;100895.16;1823939;77;21347;-75
2021/11/05 04:08:24;;;;;;;37.78;25.75;;;;;;;12.03;100.00;100886.42;1820912;77;21200;-75
2021/11/05 04:11:29;;;;;;;44.85;28.25;;;;;;;12.02;100.00;100892.42;1824155;78;21729;-75
2021/11/05 04:14:35;;;;;;;46.68;29.50;;;;;;;12.03;100.00;100891.39;1823927;77;21308;-75
2021/11/05 04:17:40;;;;;;;42.17;28.15;;;;;;;12.02;100.00;100892.42;1818990;77;21322;-75
2021/11/05 04:20:47;;;;;;;39.67;26.68;;;;;;;12.04;100.00;100897.73;1823199;78;21296;-75
2021/11/05 04:23:53;;;;;;;43.95;27.30;;;;;;;12.06;100.00;100897.58;1822990;77;21299;-75
2021/11/05 04:26:58;;;;;;;41.45;27.05;;;;;;;12.06;100.00;100897.58;1825690;77;21296;-75
2021/11/05 04:30:04;;;;;;;41.50;27.65;;;;;;;12.08;100.00;100900.98;1827765;77;21193;-75
2021/11/05 04:33:10;;;;;;;41.20;27.40;;;;;;;12.08;100.00;100907.84;1824926;77;21355;-75
2021/11/05 04:36:18;;;;;;;44.23;30.08;;;;;;;12.09;100.00;100920.52;1826978;77;21193;-75
2021/11/05 04:39:26;;;;;;;41.77;28.95;;;;;;;12.11;100.00;100910.25;1825171;78;21278;-75
2021/11/05 04:42:30;;;;;;;53.78;31.68;;;;;;;12.11;100.00;100900.66;1822316;77;21911;-75
2021/11/05 04:45:36;;;;;;;40.35;26.57;;;;;;;12.11;100.00;100896.54;1834939;78;21170;-75
2021/11/05 04:48:41;;;;;;;50.43;30.00;;;;;;;12.11;100.00;100902.88;1825584;77;21284;-74
2021/11/05 04:51:47;;;;;;;48.58;30.70;;;;;;;12.10;100.00;100895.69;1822318;77;21366;-75
2021/11/05 04:54:53;;;;;;;51.15;30.37;;;;;;;12.10;100.00;100894.84;1827978;78;21354;-74
2021/11/05 04:57:59;;;;;;;50.83;31.23;;;;;;;12.09;100.00;100901.32;1826895;77;21185;-75
2021/11/05 05:01:04;;;;;;;50.03;30.57;;;;;;;12.09;100.00;100909.55;1822334;77;21177;-75
2021/11/05 05:04:10;;;;;;;50.50;32.13;;;;;;;12.09;100.00;100914.55;1823665;77;21332;-75
2021/11/05 05:07:16;;;;;;;49.23;31.00;;;;;;;12.09;100.00;100920.03;1824417;78;21895;-75
2021/11/05 05:10:22;;;;;;;49.03;30.00;;;;;;;12.10;100.00;100922.26;1823264;77;21839;-75
2021/11/05 05:13:28;;;;;;;49.73;30.77;;;;;;;12.10;100.00;100925.86;1822723;77;21172;-75
2021/11/05 05:16:34;;;;;;;52.35;32.60;;;;;;;12.13;100.00;100936.98;1823644;77;21189;-75
2021/11/05 05:19:40;;;;;;;46.05;30.30;;;;;;;12.14;100.00;100933.20;1820112;77;21739;-75
2021/11/05 05:22:46;;;;;;;51.45;33.08;;;;;;;12.16;100.00;100932.53;1826157;77;21856;-75
2021/11/05 05:25:53;;;;;;;54.50;31.62;;;;;;;12.16;100.00;100936.13;1824605;77;21721;-75
2021/11/05 05:28:58;;;;;;;49.77;32.48;;;;;;;12.18;100.00;100929.94;1819278;77;21883;-75
2021/11/05 05:32:03;;;;;;;44.60;29.02;;;;;;;12.21;100.00;100935.09;1827148;77;21828;-76
2021/11/05 05:35:08;;;;;;;47.70;30.57;;;;;;;12.23;100.00;100937.66;1824238;77;21276;-75
2021/11/05 05:38:14;;;;;;;51.50;32.03;;;;;;;12.26;100.00;100938.70;1824658;77;21310;-75
2021/11/05 05:41:20;;;;;;;48.92;29.82;;;;;;;12.27;100.00;100934.91;1827681;77;21280;-75
2021/11/05 05:44:26;;;;;;;43.60;28.10;;;;;;;12.30;100.00;100941.44;1823833;77;21169;-75
2021/11/05 05:47:31;;;;;;;52.40;30.92;;;;;;;12.32;100.00;100946.23;1825471;77;21359;-75
2021/11/05 05:50:37;;;;;;;50.12;30.95;;;;;;;12.35;100.00;100943.15;1824071;77;21339;-75
2021/11/05 05:53:42;;;;;;;49.25;30.92;;;;;;;12.36;100.00;100942.11;1825044;78;21346;-75
2021/11/05 05:56:48;;;;;;;48.90;29.30;;;;;;;12.38;100.00;100944.70;1823365;78;21197;-75
2021/11/05 05:59:54;;;;;;;51.02;29.18;;;;;;;12.39;100.00;100947.27;1824101;77;21235;-75
2021/11/05 06:03:00;;;;;;;50.48;31.20;;;;;;;12.41;100.00;100938.85;1822617;77;21304;-75
2021/11/05 06:06:06;;;;;;;54.00;31.17;;;;;;;12.43;100.00;100938.19;1814985;77;21814;-75
2021/11/05 06:09:12;;;;;;;47.48;28.45;;;;;;;12.45;100.00;100934.22;1775009;80;21741;-76
2021/11/05 06:12:18;;;;;;;51.25;30.70;;;;;;;12.48;100.00;100934.40;1740378;80;21298;-76
2021/11/05 06:15:24;;;;;;;45.80;29.67;;;;;;;12.50;100.00;100933.17;1725581;80;21203;-76
2021/11/05 06:18:31;;;;;;;53.10;31.30;;;;;;;12.50;100.00;100934.55;1771115;81;21162;-76
2021/11/05 06:21:38;;;;;;;48.78;29.80;;;;;;;12.50;100.00;100940.03;1791475;78;21300;-76
2021/11/05 06:24:43;;;;;;;55.63;31.62;;;;;;;12.49;100.00;100936.95;1828796;78;21308;-77
2021/11/05 06:27:50;;;;;;;55.67;33.18;;;;;;;12.50;100.00;100937.81;1789494;78;21195;-75
2021/11/05 06:30:56;;;;;;;51.23;30.15;;;;;;;12.51;100.00;100928.05;1789000;78;21255;-75
2021/11/05 06:34:03;;;;;;;53.52;30.82;;;;;;;12.54;100.00;100924.94;1794818;79;21324;-76
2021/11/05 06:37:09;;;;;;;50.08;30.15;;;;;;;12.57;100.00;100928.39;1813918;78;21367;-77
2021/11/05 06:40:17;;;;;;;55.70;30.57;;;;;;;12.60;100.00;100925.27;1803305;78;21825;-76
2021/11/05 06:43:22;;;;;;;55.48;32.55;;;;;;;12.63;100.00;100933.17;1810860;78;21150;-76
2021/11/05 06:46:29;;;;;;;50.08;30.10;;;;;;;12.67;100.00;100935.39;1817798;78;21323;-76
2021/11/05 06:49:35;;;;;;;59.03;31.97;;;;;;;12.74;100.00;100936.39;1805178;78;21911;-76
2021/11/05 06:52:41;;;;;;;49.30;30.15;;;;;;;12.81;100.00;100932.44;1824323;78;21325;-75
2021/11/05 06:55:47;;;;;;;53.80;31.10;;;;;;;12.87;100.00;100929.50;1730514;81;21145;-76
2021/11/05 06:58:56;;;;;;;58.40;32.45;;;;;;;12.87;100.00;100926.23;1774970;78;21780;-78
2021/11/05 07:02:03;;;;;;;56.58;33.92;;;;;;;12.90;100.00;100925.90;1803492;78;21150;-77
2021/11/05 07:05:09;;;;;;;57.70;35.28;;;;;;;12.93;100.00;100930.16;1809131;78;21170;-77
2021/11/05 07:08:15;;;;;;;52.93;32.35;;;;;;;12.98;100.00;100926.37;1801385;77;21283;-77
2021/11/05 07:11:21;;;;;;;57.75;33.90;;;;;;;13.02;100.00;100928.58;1788587;78;21189;-76
2021/11/05 07:14:27;;;;;;;52.27;32.53;;;;;;;13.08;100.00;100924.30;1806336;78;21320;-76
2021/11/05 07:17:33;;;;;;;50.28;32.90;;;;;;;13.14;100.00;100919.97;1807749;78;21252;-76
2021/11/05 07:20:38;;;;;;;53.85;35.33;;;;;;;13.17;100.00;100923.20;1806700;78;21292;-76
2021/11/05 07:23:43;;;;;;;49.70;32.73;;;;;;;13.22;100.00;100928.19;1798039;78;21361;-76
2021/11/05 07:26:51;;;;;;;52.33;31.42;;;;;;;13.28;100.00;100931.09;1808418;77;21304;-76
2021/11/05 07:29:59;;;;;;;54.50;33.07;;;;;;;13.32;100.00;100932.13;1816729;78;21697;-76
2021/11/05 07:33:06;;;;;;;52.50;34.60;;;;;;;13.35;100.00;100933.97;1790722;77;21722;-76
2021/11/05 07:36:12;;;;;;;50.35;32.05;;;;;;;13.37;100.00;100926.42;1812321;78;21327;-76
2021/11/05 07:39:19;;;;;;;51.95;32.63;;;;;;;13.41;100.00;100925.03;1812838;78;21513;-76
2021/11/05 07:42:25;;;;;;;50.00;32.58;;;;;;;13.47;100.00;100937.19;1813430;77;21300;-76
2021/11/05 07:45:31;;;;;;;55.98;35.15;;;;;;;13.52;100.00;100932.01;1772880;79;21304;-77
2021/11/05 07:48:37;;;;;;;53.38;31.25;;;;;;;13.58;100.00;100940.89;1729633;82;21910;-76
2021/11/05 07:51:43;;;;;;;55.73;34.58;;;;;;;13.66;100.00;100938.63;1805940;78;21181;-76
2021/11/05 07:54:49;;;;;;;56.33;33.20;;;;;;;13.74;100.00;100939.95;1808903;78;21201;-75
2021/11/05 07:57:54;;;;;;;53.92;32.45;;;;;;;13.75;100.00;100943.03;1792394;78;21360;-77
2021/11/05 08:01:00;;;;;;;51.73;32.67;;;;;;;13.77;100.00;100956.07;1811543;78;21778;-75
2021/11/05 08:04:08;;;;;;;53.78;33.18;;;;;;;13.80;100.00;100948.84;1810062;78;21237;-81
2021/11/05 08:07:20;;;;;;;58.08;32.48;;;;;;;13.87;100.00;100948.44;1809233;78;21307;-75
2021/11/05 08:10:24;;;;;;;50.28;32.28;;;;;;;13.94;100.00;100956.31;1800175;78;21282;-75
2021/11/05 08:13:29;;;;;;;53.92;34.45;;;;;;;13.94;100.00;100959.06;1805346;78;21307;-75
2021/11/05 08:16:35;;;;;;;53.98;33.63;;;;;;;13.94;100.00;100951.33;1808684;78;21298;-76
2021/11/05 08:19:40;;;;;;;50.75;31.97;;;;;;;13.97;100.00;100950.45;1812031;78;21296;-76
2021/11/05 08:22:49;;;;;;;51.83;32.55;;;;;;;14.00;100.00;100954.72;1812058;78;21272;-76
2021/11/05 08:25:55;;;;;;;50.67;31.20;;;;;;;14.02;100.00;100956.75;1808078;78;21307;-76
2021/11/05 08:29:00;;;;;;;55.43;30.68;;;;;;;14.03;100.00;100959.86;1809093;78;21276;-76
2021/11/05 08:32:06;;;;;;;51.33;32.38;;;;;;;14.05;100.00;100954.49;1820945;78;21240;-76
2021/11/05 08:35:13;;;;;;;46.18;30.45;;;;;;;14.13;100.00;100963.74;1800606;78;21267;-76
2021/11/05 08:38:20;;;;;;;45.43;30.77;;;;;;;14.19;100.00;100964.38;1811440;78;21339;-76
2021/11/05 08:41:25;;;;;;;43.00;28.42;;;;;;;14.20;100.00;100964.70;1806663;78;21146;-75
2021/11/05 08:44:31;;;;;;;46.05;30.68;;;;;;;14.22;100.00;100959.89;1800327;78;21185;-75
2021/11/05 08:47:37;;;;;;;48.20;31.42;;;;;;;14.25;100.00;100952.09;1807229;78;21299;-75
2021/11/05 08:50:42;;;;;;;49.53;31.65;;;;;;;14.27;100.00;100944.53;1811939;78;21302;-76
2021/11/05 08:53:47;;;;;;;44.67;29.42;;;;;;;14.31;100.00;100942.27;1807650;78;21796;-75
2021/11/05 08:56:53;;;;;;;47.40;31.33;;;;;;;14.33;100.00;100945.16;1811439;78;21781;-76
2021/11/05 08:59:59;;;;;;;50.43;31.02;;;;;;;14.36;100.00;100937.06;1803697;78;22476;-76
2021/11/05 09:03:04;;;;;;;48.02;30.55;;;;;;;14.42;100.00;100934.08;1809278;78;21870;-76
2021/11/05 09:06:10;;;;;;;49.55;30.77;;;;;;;14.46;100.00;100933.52;1812735;77;21260;-76
2021/11/05 09:09:16;;;;;;;47.67;31.68;;;;;;;14.49;100.00;100935.95;1810937;78;21165;-75
2021/11/05 09:12:21;;;;;;;49.45;31.60;;;;;;;14.55;100.00;100937.09;1803498;78;21259;-76
2021/11/05 09:15:31;;;;;;;43.65;29.82;;;;;;;14.62;100.00;100933.05;1810421;78;21411;-76
2021/11/05 09:18:36;;;;;;;45.92;28.85;;;;;;;14.69;100.00;100931.27;1813874;78;21851;-77
2021/11/05 09:21:42;;;;;;;43.35;28.42;;;;;;;14.76;100.00;100928.08;1811424;78;21212;-76
2021/11/05 09:24:47;;;;;;;46.85;29.32;;;;;;;14.88;100.00;100928.48;1808629;78;21220;-76
2021/11/05 09:27:54;;;;;;;39.63;27.58;;;;;;;14.96;100.00;100925.62;1808583;78;21189;-76
2021/11/05 09:31:00;;;;;;;44.38;26.37;;;;;;;15.03;100.00;100926.05;1802748;78;21288;-75
2021/11/05 09:34:05;;;;;;;42.75;28.50;;;;;;;15.09;100.00;100929.94;1814733;78;21152;-76
2021/11/05 09:37:13;;;;;;;43.50;28.02;;;;;;;15.16;100.00;100931.42;1811559;78;21296;-76
2021/11/05 09:40:21;;;;;;;40.90;25.85;;;;;;;15.22;100.00;100934.78;1807977;78;21358;-76
2021/11/05 09:43:27;;;;;;;41.63;27.93;;;;;;;15.27;100.00;100935.06;1806197;78;21276;-76
2021/11/05 09:46:32;;;;;;;33.63;23.42;;;;;;;15.33;100.00;100941.17;1809381;78;22530;-75
2021/11/05 09:49:37;;;;;;;38.95;24.50;;;;;;;15.41;100.00;100927.30;1808486;78;21272;-77
2021/11/05 09:52:45;;;;;;;34.78;23.20;;;;;;;15.53;100.00;100939.55;1815179;78;21846;-77
2021/11/05 09:55:53;;;;;;;36.23;25.48;;;;;;;15.60;100.00;100944.59;1805939;77;21323;-76
2021/11/05 09:58:59;;;;;;;34.03;23.92;;;;;;;15.63;100.00;100930.11;1807865;78;21241;-77
2021/11/05 10:02:04;;;;;;;33.38;22.93;;;;;;;15.68;100.00;100923.52;1813958;78;21692;-77
2021/11/05 10:05:12;;;;;;;33.02;23.12;;;;;;;15.81;100.00;100927.28;1811317;78;21196;-77
2021/11/05 10:08:18;;;;;;;31.75;20.97;;;;;;;15.91;100.00;100916.45;1809060;78;22720;-77
2021/11/05 10:11:35;;;;;;;31.62;22.50;;;;;;;15.94;100.00;100916.89;1807332;78;21296;-76
2021/11/05 10:14:41;;;;;;;31.75;22.02;;;;;;;15.92;100.00;100910.72;1805807;77;21292;-77
2021/11/05 10:17:47;;;;;;;36.80;23.40;;;;;;;15.92;100.00;100912.11;1805482;78;21215;-77
2021/11/05 10:20:56;;;;;;;30.02;21.50;;;;;;;15.91;100.00;100916.45;1804523;78;21318;-77
2021/11/05 10:24:04;;;;;;;32.67;23.20;;;;;;;15.86;100.00;100912.05;1802265;78;21355;-77
2021/11/05 10:27:09;;;;;;;33.30;22.52;;;;;;;15.77;100.00;100912.17;1800335;78;22542;-77
2021/11/05 10:30:16;;;;;;;34.20;22.22;;;;;;;15.71;100.00;100907.94;1788810;78;21298;-77
2021/11/05 10:33:24;;;;;;;32.48;22.05;;;;;;;15.65;100.00;100908.20;1806095;78;21347;-76
2021/11/05 10:36:31;;;;;;;34.08;22.02;;;;;;;15.63;100.00;100895.64;1787480;79;21634;-77
2021/11/05 10:39:36;;;;;;;33.65;22.93;;;;;;;15.58;100.00;100903.97;1785377;79;21359;-77
2021/11/05 10:42:51;;;;;;;33.23;24.05;;;;;;;15.53;100.00;100900.95;1792840;78;21316;-76
2021/11/05 10:45:57;;;;;;;33.50;23.65;;;;;;;15.50;100.00;100905.45;1727937;80;21675;-76
2021/11/05 10:49:09;;;;;;;36.88;24.15;;;;;;;15.48;100.00;100908.06;1717911;83;21348;-76
2021/11/05 10:52:28;;;;;;;34.83;24.80;;;;;;;15.46;100.00;100901.37;1727370;82;21338;-76
2021/11/05 10:55:53;;;;;;;37.05;24.18;;;;;;;15.43;100.00;100896.77;1764450;79;21312;-76
2021/11/05 10:59:07;;;;;;;36.98;25.20;;;;;;;15.40;100.00;100900.78;1752743;81;21406;-76
2021/11/05 11:02:14;;;;;;;37.80;26.70;;;;;;;15.42;100.00;100902.81;1727946;81;21185;-76
2021/11/05 11:05:40;;;;;;;39.55;24.72;;;;;;;15.47;100.00;100896.19;1785004;79;21692;-76
2021/11/05 11:08:49;;;;;;;41.60;27.52;;;;;;;15.58;100.00;100900.36;1748828;80;21856;-77
2021/11/05 11:12:03;;;;;;;40.90;26.23;;;;;;;15.71;100.00;100896.91;1827691;77;21186;-77
2021/11/05 11:15:07;;;;;;;35.50;23.47;;;;;;;15.82;100.00;100890.36;1820658;77;21351;-77
2021/11/05 11:18:12;;;;;;;41.45;26.45;;;;;;;15.90;100.00;100896.25;1816714;78;21307;-77
2021/11/05 11:21:19;;;;;;;34.38;23.73;;;;;;;15.92;100.00;100900.22;1788991;78;21340;-76
2021/11/05 11:24:26;;;;;;;40.80;27.67;;;;;;;15.87;100.00;100893.91;1823670;78;21320;-74
2021/11/05 11:27:32;;;;;;;40.67;27.30;;;;;;;15.83;100.00;100893.45;1714347;82;21355;-74
2021/11/05 11:30:39;;;;;;;41.18;26.73;;;;;;;15.81;100.00;100883.67;1744091;81;21341;-74
2021/11/05 11:33:44;;;;;;;41.95;26.87;;;;;;;15.82;100.00;100886.76;1743524;81;21330;-75
2021/11/05 11:36:53;;;;;;;41.92;27.20;;;;;;;15.82;100.00;100889.52;1710135;82;21347;-75
2021/11/05 11:39:59;;;;;;;44.20;28.85;;;;;;;15.83;100.00;100889.31;1757915;80;21854;-74
2021/11/05 11:43:04;;;;;;;43.63;28.00;;;;;;;15.84;100.00;100889.62;1810723;78;21315;-74
2021/11/05 11:46:10;;;;;;;45.40;29.30;;;;;;;15.84;100.00;100892.92;1791541;79;21314;-74
2021/11/05 11:49:17;;;;;;;40.90;26.77;;;;;;;15.82;100.00;100901.92;1789787;79;21942;-74
2021/11/05 11:52:28;;;;;;;43.98;27.20;;;;;;;15.80;100.00;100898.49;1798880;78;21300;-76
2021/11/05 11:55:36;;;;;;;40.10;27.20;;;;;;;15.78;100.00;100899.23;1804568;78;21391;-75
2021/11/05 11:58:41;;;;;;;45.78;31.87;;;;;;;15.79;100.00;100884.37;1808523;78;21373;-75
2021/11/05 12:01:50;;;;;;;46.50;30.23;;;;;;;15.82;100.00;100884.00;1808824;78;21311;-76
2021/11/05 12:04:56;;;;;;;44.33;29.80;;;;;;;15.83;100.00;100876.89;1816260;78;21850;-76
2021/11/05 12:08:50;;;;;;;44.00;28.27;;;;;;;15.84;100.00;100881.36;1811717;78;21319;-76
2021/11/05 12:11:56;;;;;;;47.83;31.75;;;;;;;15.86;100.00;100868.77;1795907;78;21308;-76
2021/11/05 12:15:14;;;;;;;47.33;31.42;;;;;;;15.82;100.00;100862.78;1810707;78;21187;-75
2021/11/05 12:18:21;;;;;;;44.03;29.55;;;;;;;15.77;100.00;100857.00;1818981;78;21863;-76
2021/11/05 12:21:26;;;;;;;54.03;32.42;;;;;;;15.77;100.00;100869.42;1744956;81;21264;-78
2021/11/05 12:24:32;;;;;;;54.40;31.73;;;;;;;15.77;100.00;100856.16;1770247;80;21320;-75
2021/11/05 12:27:37;;;;;;;49.15;30.08;;;;;;;15.76;100.00;100859.94;1729428;81;21343;-75
2021/11/05 12:30:42;;;;;;;42.95;27.82;;;;;;;15.75;100.00;100871.50;1822425;78;21217;-75
2021/11/05 12:33:49;;;;;;;50.38;31.20;;;;;;;15.73;100.00;100864.48;1820130;78;21315;-77
2021/11/05 12:37:01;;;;;;;49.58;30.82;;;;;;;15.70;100.00;100862.96;1796214;78;21872;-74
2021/11/05 12:40:42;;;;;;;51.73;31.73;;;;;;;15.68;100.00;100855.95;1793474;79;21288;-74
2021/11/05 12:43:48;;;;;;;44.50;29.80;;;;;;;15.64;100.00;100848.59;1793454;79;21310;-74
2021/11/05 12:46:55;;;;;;;47.30;30.08;;;;;;;15.59;100.00;100851.91;1802353;78;21302;-75
2021/11/05 12:50:07;;;;;;;43.80;28.85;;;;;;;15.54;100.00;100847.50;1817662;78;21130;-75
2021/11/05 12:53:16;;;;;;;52.33;31.85;;;;;;;15.48;100.00;100844.16;1824867;78;21311;-74
2021/11/05 12:56:25;;;;;;;47.48;28.50;;;;;;;15.43;100.00;100848.53;1822368;77;21213;-74
2021/11/05 12:59:37;;;;;;;46.58;29.95;;;;;;;15.39;100.00;100845.86;1831898;78;21308;-75
2021/11/05 13:02:43;;;;;;;44.08;29.07;;;;;;;15.36;100.00;100851.22;1799665;78;21298;-74
2021/11/05 13:06:04;;;;;;;49.48;30.95;;;;;;;15.33;100.00;100863.47;1807379;78;21357;-74
2021/11/05 13:09:09;;;;;;;49.50;30.02;;;;;;;15.30;100.00;100847.88;1820843;78;21311;-74
2021/11/05 13:12:27;;;;;;;46.68;30.45;;;;;;;15.26;100.00;100856.20;1799563;78;21255;-75
2021/11/05 13:15:34;;;;;;;52.23;31.27;;;;;;;15.20;100.00;100855.08;1784357;79;21327;-75
2021/11/05 13:18:39;;;;;;;46.35;27.73;;;;;;;15.13;100.00;100853.27;1762788;79;21276;-75
2021/11/05 13:21:44;;;;;;;46.60;28.15;;;;;;;15.06;100.00;100848.55;1749594;79;21208;-75
2021/11/05 13:24:50;;;;;;;41.53;26.57;;;;;;;15.01;100.00;100854.30;1784949;80;21958;-75
2021/11/05 13:28:15;;;;;;;39.45;27.13;;;;;;;14.93;100.00;100852.50;1791897;80;21793;-75
2021/11/05 13:31:22;;;;;;;34.78;23.40;;;;;;;14.87;100.00;100846.39;1790988;79;21311;-75
2021/11/05 13:34:28;;;;;;;38.50;26.73;;;;;;;14.82;100.00;100848.86;1789680;80;21224;-74
2021/11/05 13:37:35;;;;;;;38.33;24.82;;;;;;;14.76;100.00;100850.98;1787736;79;21317;-74
2021/11/05 13:40:41;;;;;;;42.65;28.40;;;;;;;14.72;100.00;100852.41;1791512;79;21971;-74
2021/11/05 13:43:50;;;;;;;44.05;27.40;;;;;;;14.66;100.00;100846.29;1775112;80;21320;-74
2021/11/05 13:46:55;;;;;;;47.17;27.10;;;;;;;14.62;100.00;100845.80;1788414;79;21394;-75
2021/11/05 13:50:17;;;;;;;40.55;26.90;;;;;;;14.56;100.00;100840.55;1788926;79;21347;-74
2021/11/05 13:53:30;;;;;;;39.65;25.97;;;;;;;14.50;100.00;100833.58;1794759;79;21200;-74
2021/11/05 13:56:39;;;;;;;40.15;26.15;;;;;;;14.44;100.00;100838.41;1799908;79;21176;-74
2021/11/05 13:59:44;;;;;;;41.53;26.00;;;;;;;14.37;100.00;100831.44;1794115;79;21831;-74